Time;durP1;ratioP1;P1;durP2;ratioP2;P2;SDS_P1;SDS_P2;PMS_P1;PMS_P2;Temp;Humidity;BMP_temperature;BMP_pressure;BME280_temperature;BME280_humidity;BME280_pressure;Samples;Min_cycle;Max_cycle;Signal;HPM_P1;HPM_P2
2023/06/16 00:00:19;;;;;;;6.22;3.50;;;;;14.10;94284.00;;;;7397704;19;20158;-75
2023/06/16 00:02:57;;;;;;;4.05;3.40;;;;;14.30;94286.00;;;;7395673;19;20144;-76
2023/06/16 00:05:25;;;;;;;4.45;3.50;;;;;14.40;94281.00;;;;7394730;19;20519;-75
2023/06/16 00:08:09;;;;;;;4.90;3.25;;;;;14.30;94287.00;;;;7395707;19;20125;-74
2023/06/16 00:10:36;;;;;;;3.50;3.13;;;;;14.20;94278.00;;;;7395750;19;20155;-76
2023/06/16 00:13:11;;;;;;;4.72;3.03;;;;;14.20;94284.00;;;;7395439;19;20132;-74
2023/06/16 00:15:40;;;;;;;4.10;2.90;;;;;14.20;94285.00;;;;7395190;19;20212;-75
2023/06/16 00:18:15;;;;;;;3.20;2.90;;;;;14.20;94287.00;;;;7394837;19;20174;-76
2023/06/16 00:20:51;;;;;;;4.55;3.17;;;;;14.20;94289.00;;;;7397953;19;20138;-75
2023/06/16 00:23:26;;;;;;;3.20;2.90;;;;;14.10;94284.00;;;;7394261;19;20623;-75
2023/06/16 00:25:54;;;;;;;4.25;3.20;;;;;13.90;94288.00;;;;7394313;19;20228;-75
2023/06/16 00:28:28;;;;;;;6.13;3.30;;;;;13.90;94278.00;;;;7397497;19;20132;-75
2023/06/16 00:30:56;;;;;;;3.90;3.00;;;;;13.90;94280.00;;;;7395090;19;20145;-75
2023/06/16 00:33:24;;;;;;;3.90;3.50;;;;;13.70;94277.00;;;;7396652;19;20440;-74
2023/06/16 00:35:59;;;;;;;7.57;3.45;;;;;13.50;94269.00;;;;7396138;19;20144;-75
2023/06/16 00:38:34;;;;;;;3.45;2.90;;;;;13.50;94273.00;;;;7395385;19;20143;-75
2023/06/16 00:41:09;;;;;;;3.90;3.22;;;;;13.50;94278.00;;;;7395675;19;20208;-75
2023/06/16 00:43:36;;;;;;;4.80;3.05;;;;;13.40;94282.00;;;;7396833;19;20125;-75
2023/06/16 00:46:28;;;;;;;4.82;3.10;;;;;13.40;94278.00;;;;7394109;19;20211;-74
2023/06/16 00:48:58;;;;;;;4.20;3.20;;;;;13.20;94272.00;;;;7394055;19;20137;-74
2023/06/16 00:51:32;;;;;;;3.50;3.20;;;;;13.10;94275.00;;;;7395889;19;20601;-75
2023/06/16 00:54:01;;;;;;;4.28;3.50;;;;;12.90;94271.00;;;;7395441;19;20615;-75
2023/06/16 00:56:37;;;;;;;7.60;3.10;;;;;12.90;94273.00;;;;7395065;19;20465;-75
2023/06/16 00:59:06;;;;;;;4.05;3.67;;;;;12.80;94271.00;;;;7394281;19;20812;-75
2023/06/16 01:01:41;;;;;;;3.83;3.33;;;;;12.80;94276.00;;;;7395985;19;20140;-74
2023/06/16 01:04:09;;;;;;;5.75;3.00;;;;;12.80;94260.00;;;;7393038;19;20128;-75
2023/06/16 01:07:12;;;;;;;4.95;3.80;;;;;13.00;94266.00;;;;7391936;19;20224;-76
2023/06/16 01:10:07;;;;;;;5.20;3.55;;;;;13.40;94272.00;;;;7395672;19;20133;-75
2023/06/16 01:12:52;;;;;;;5.03;3.60;;;;;13.40;94271.00;;;;7392605;19;20148;-76
2023/06/16 01:15:28;;;;;;;5.93;3.30;;;;;13.40;94272.00;;;;7394113;19;20564;-75
2023/06/16 01:18:02;;;;;;;3.85;3.42;;;;;13.60;94256.00;;;;7394888;19;20123;-74
2023/06/16 01:20:51;;;;;;;4.63;3.40;;;;;13.60;94262.00;;;;7392834;19;20221;-75
2023/06/16 01:23:55;;;;;;;4.57;3.83;;;;;13.60;94257.00;;;;7392881;19;20133;-76
2023/06/16 01:26:36;;;;;;;4.38;3.60;;;;;13.60;94262.00;;;;7401832;19;20767;-75
2023/06/16 01:29:12;;;;;;;4.22;3.40;;;;;13.70;94264.00;;;;7398064;19;20152;-75
2023/06/16 01:31:49;;;;;;;6.55;3.60;;;;;13.90;94262.00;;;;7403685;19;20466;-75
2023/06/16 01:34:26;;;;;;;4.35;3.20;;;;;14.00;94256.00;;;;7399701;19;20145;-75
2023/06/16 01:37:02;;;;;;;5.20;3.45;;;;;14.00;94261.00;;;;7401300;19;20488;-76
2023/06/16 01:39:30;;;;;;;5.65;3.42;;;;;13.90;94260.00;;;;7398399;19;20137;-74
2023/06/16 01:42:07;;;;;;;4.15;3.50;;;;;13.80;94263.00;;;;7399978;19;20149;-75
2023/06/16 01:44:46;;;;;;;3.78;3.33;;;;;13.80;94256.00;;;;7400249;19;20121;-76
2023/06/16 01:47:20;;;;;;;4.03;3.47;;;;;13.80;94260.00;;;;7403480;19;20131;-74
2023/06/16 01:49:55;;;;;;;4.78;2.88;;;;;13.90;94255.00;;;;7400433;19;20502;-75
2023/06/16 01:52:30;;;;;;;3.53;3.15;;;;;13.90;94261.00;;;;7400231;19;20697;-74
2023/06/16 01:55:05;;;;;;;6.05;3.03;;;;;14.00;94253.00;;;;7400875;19;20136;-76
2023/06/16 01:57:34;;;;;;;3.58;3.25;;;;;14.10;94255.00;;;;7400739;19;20145;-75
2023/06/16 02:00:20;;;;;;;5.72;3.58;;;;;14.10;94255.00;;;;7401373;19;20147;-75
2023/06/16 02:03:25;;;;;;;4.57;3.47;;;;;14.10;94257.00;;;;7397597;19;20178;-76
2023/06/16 02:06:02;;;;;;;4.50;3.10;;;;;13.90;94255.00;;;;7398761;19;20149;-74
2023/06/16 02:08:41;;;;;;;4.70;3.10;;;;;14.00;94265.00;;;;7401601;19;20624;-75
2023/06/16 02:11:16;;;;;;;3.75;3.35;;;;;13.90;94261.00;;;;7401492;19;20132;-75
2023/06/16 02:13:44;;;;;;;4.30;3.20;;;;;14.00;94260.00;;;;7398122;19;20479;-75
2023/06/16 02:16:19;;;;;;;4.10;3.05;;;;;14.20;94255.00;;;;7400991;19;20120;-74
2023/06/16 02:18:49;;;;;;;6.32;3.20;;;;;14.10;94253.00;;;;7400161;19;20479;-74
2023/06/16 02:21:23;;;;;;;3.55;3.13;;;;;14.10;94262.00;;;;7398401;19;20140;-75
2023/06/16 02:23:50;;;;;;;9.00;3.20;;;;;14.20;94257.00;;;;7401233;19;20121;-75
2023/06/16 02:26:25;;;;;;;4.35;3.40;;;;;14.20;94261.00;;;;7401132;19;20589;-75
2023/06/16 02:29:00;;;;;;;6.15;3.50;;;;;14.10;94264.00;;;;7400194;19;20154;-74
2023/06/16 02:31:34;;;;;;;6.57;3.20;;;;;14.00;94255.00;;;;7399310;19;20141;-75
2023/06/16 02:34:09;;;;;;;4.47;3.45;;;;;14.00;94259.00;;;;7398686;19;20200;-75
2023/06/16 02:36:46;;;;;;;4.80;3.10;;;;;14.00;94252.00;;;;7397671;19;20136;-74
2023/06/16 02:39:21;;;;;;;4.47;3.20;;;;;14.00;94260.00;;;;7396613;19;20146;-75
2023/06/16 02:41:49;;;;;;;3.47;3.15;;;;;13.90;94262.00;;;;7399699;19;20621;-75
2023/06/16 02:44:23;;;;;;;3.90;3.30;;;;;14.00;94261.00;;;;7399328;19;20139;-74
2023/06/16 02:46:51;;;;;;;3.42;2.92;;;;;13.80;94261.00;;;;7400658;19;20132;-74
2023/06/16 02:49:26;;;;;;;7.13;3.40;;;;;13.60;94259.00;;;;7401789;19;20608;-75
2023/06/16 02:52:02;;;;;;;4.22;3.20;;;;;13.40;94267.00;;;;7400179;19;20592;-80
2023/06/16 02:54:37;;;;;;;4.30;3.47;;;;;13.40;94269.00;;;;7398206;19;20117;-79
2023/06/16 02:57:07;;;;;;;4.07;3.33;;;;;13.30;94268.00;;;;7395915;19;20722;-78
2023/06/16 02:59:41;;;;;;;5.03;3.33;;;;;13.20;94262.00;;;;7396522;19;20137;-79
2023/06/16 03:02:09;;;;;;;4.05;3.30;;;;;13.10;94252.00;;;;7398055;19;20153;-78
2023/06/16 03:04:44;;;;;;;2.95;2.65;;;;;13.00;94256.00;;;;7398185;19;20146;-79
2023/06/16 03:07:31;;;;;;;6.07;3.17;;;;;13.00;94259.00;;;;7398216;19;20145;-79
2023/06/16 03:10:09;;;;;;;7.05;3.42;;;;;13.00;94259.00;;;;7398716;19;20147;-79
2023/06/16 03:12:44;;;;;;;4.05;3.13;;;;;13.10;94247.00;;;;7398582;19;20212;-78
2023/06/16 03:15:19;;;;;;;5.57;3.20;;;;;13.00;94260.00;;;;7399946;19;20191;-79
2023/06/16 03:17:53;;;;;;;5.63;3.17;;;;;13.00;94260.00;;;;7399632;19;20132;-78
2023/06/16 03:20:30;;;;;;;4.63;3.50;;;;;13.00;94245.00;;;;7397031;19;20636;-79
2023/06/16 03:23:07;;;;;;;4.07;3.50;;;;;13.10;94252.00;;;;7398749;19;20145;-77
2023/06/16 03:25:42;;;;;;;6.05;3.15;;;;;13.30;94262.00;;;;7398564;19;20157;-79
2023/06/16 03:28:09;;;;;;;5.35;3.30;;;;;13.30;94252.00;;;;7396942;19;20617;-79
2023/06/16 03:30:44;;;;;;;6.72;3.20;;;;;13.30;94257.00;;;;7398752;19;20135;-80
2023/06/16 03:33:12;;;;;;;3.22;2.92;;;;;13.20;94259.00;;;;7397324;19;20121;-80
2023/06/16 03:35:46;;;;;;;5.22;3.10;;;;;13.10;94257.00;;;;7396906;19;20680;-79
2023/06/16 03:38:16;;;;;;;6.57;3.50;;;;;13.10;94268.00;;;;7397004;19;20140;-80
2023/06/16 03:40:52;;;;;;;43.53;7.72;;;;;12.90;94266.00;;;;7396823;19;20136;-79
2023/06/16 03:43:20;;;;;;;17.83;4.40;;;;;12.80;94269.00;;;;7396620;19;20238;-79
2023/06/16 03:45:47;;;;;;;5.97;3.22;;;;;12.90;94259.00;;;;7396647;19;20488;-78
2023/06/16 03:48:22;;;;;;;4.80;3.20;;;;;13.10;94260.00;;;;7397822;19;20136;-78
2023/06/16 03:50:52;;;;;;;6.38;3.15;;;;;13.20;94251.00;;;;7396183;19;20486;-79
2023/06/16 03:53:20;;;;;;;4.47;3.05;;;;;13.30;94256.00;;;;7395865;19;20615;-79
2023/06/16 03:55:55;;;;;;;3.40;2.95;;;;;13.40;94265.00;;;;7397595;19;20158;-79
2023/06/16 03:58:29;;;;;;;4.13;3.20;;;;;13.40;94257.00;;;;7395778;19;20132;-79
2023/06/16 04:01:03;;;;;;;5.55;3.50;;;;;13.40;94264.00;;;;7396584;19;20632;-79
2023/06/16 04:03:38;;;;;;;4.22;3.13;;;;;13.50;94263.00;;;;7396317;19;20171;-75
2023/06/16 04:06:18;;;;;;;3.70;3.30;;;;;13.30;94268.00;;;;7394081;19;20165;-74
2023/06/16 04:08:47;;;;;;;5.03;3.50;;;;;13.30;94266.00;;;;7397445;19;20493;-75
2023/06/16 04:11:20;;;;;;;4.40;3.50;;;;;13.40;94260.00;;;;7396584;19;20144;-74
2023/06/16 04:13:53;;;;;;;5.70;3.30;;;;;13.50;94269.00;;;;7393549;19;20212;-74
2023/06/16 04:16:33;;;;;;;8.73;3.50;;;;;13.60;94259.00;;;;7395969;19;20153;-76
2023/06/16 04:19:08;;;;;;;27.13;4.50;;;;;13.80;94261.00;;;;7395387;19;20129;-76
2023/06/16 04:21:36;;;;;;;25.48;4.05;;;;;13.80;94268.00;;;;7394991;19;20180;-74
2023/06/16 04:24:10;;;;;;;14.70;3.97;;;;;13.80;94257.00;;;;7393836;19;20628;-75
2023/06/16 04:26:43;;;;;;;7.78;3.60;;;;;13.80;94268.00;;;;7392489;19;20485;-74
2023/06/16 04:29:20;;;;;;;8.52;3.70;;;;;13.80;94271.00;;;;7395807;19;20141;-74
2023/06/16 04:31:59;;;;;;;7.50;3.40;;;;;14.10;94271.00;;;;7396143;19;20199;-74
2023/06/16 04:34:31;;;;;;;6.88;3.45;;;;;14.20;94270.00;;;;7395257;19;20156;-75
2023/06/16 04:37:05;;;;;;;11.20;4.10;;;;;14.20;94270.00;;;;7394614;19;20148;-74
2023/06/16 04:39:40;;;;;;;12.13;3.70;;;;;14.50;94272.00;;;;7394976;19;20252;-75
2023/06/16 04:42:09;;;;;;;9.80;3.65;;;;;14.60;94271.00;;;;7394081;19;20188;-75
2023/06/16 04:44:44;;;;;;;4.90;3.53;;;;;14.70;94263.00;;;;7394189;19;20593;-75
2023/06/16 04:47:21;;;;;;;9.10;3.70;;;;;14.80;94262.00;;;;7396284;19;20479;-74
2023/06/16 04:49:55;;;;;;;5.63;3.20;;;;;14.70;94272.00;;;;7394503;19;20593;-74
2023/06/16 04:52:24;;;;;;;4.90;3.70;;;;;14.80;94261.00;;;;7395001;19;20208;-75
2023/06/16 04:55:06;;;;;;;4.63;3.50;;;;;15.20;94265.00;;;;7393721;19;20165;-74
2023/06/16 04:57:40;;;;;;;5.53;3.50;;;;;15.40;94265.00;;;;7394150;19;20144;-74
2023/06/16 05:00:15;;;;;;;4.50;3.55;;;;;15.70;94261.00;;;;7388678;19;20152;-75
2023/06/16 05:02:50;;;;;;;5.88;3.35;;;;;15.90;94221.00;;;;7392618;19;20512;-75
2023/06/16 05:05:25;;;;;;;4.40;3.10;;;;;16.10;94265.00;;;;7393635;19;20632;-75
2023/06/16 05:08:06;;;;;;;3.67;3.30;;;;;16.20;94258.00;;;;7392969;19;20600;-75
2023/06/16 05:10:43;;;;;;;5.97;3.50;;;;;16.40;94259.00;;;;7394697;19;20510;-74
2023/06/16 05:13:11;;;;;;;4.82;3.65;;;;;16.60;94260.00;;;;7391413;19;20222;-79
2023/06/16 05:15:47;;;;;;;4.30;3.60;;;;;16.60;94259.00;;;;7393941;19;20152;-78
2023/06/16 05:18:15;;;;;;;5.13;3.28;;;;;16.80;94259.00;;;;7395575;19;20140;-80
2023/06/16 05:20:49;;;;;;;7.20;3.72;;;;;16.90;94261.00;;;;7390408;19;20148;-80
2023/06/16 05:23:19;;;;;;;4.20;3.33;;;;;16.90;94254.00;;;;7391464;19;20136;-79
2023/06/16 05:25:53;;;;;;;4.88;3.80;;;;;17.10;94252.00;;;;7393190;19;20144;-79
2023/06/16 05:28:23;;;;;;;8.15;4.20;;;;;17.20;94259.00;;;;7393797;19;20140;-79
2023/06/16 05:30:57;;;;;;;3.72;3.03;;;;;17.60;94257.00;;;;7392396;19;20156;-78
2023/06/16 05:33:32;;;;;;;5.78;3.13;;;;;17.70;94258.00;;;;7396186;19;20222;-79
2023/06/16 05:36:08;;;;;;;5.50;3.40;;;;;17.80;94245.00;;;;7392212;19;20514;-79
2023/06/16 05:38:40;;;;;;;4.72;3.30;;;;;17.90;94258.00;;;;7392473;19;20143;-79
2023/06/16 05:41:14;;;;;;;5.13;3.13;;;;;18.00;94261.00;;;;7391264;19;20144;-78
2023/06/16 05:43:44;;;;;;;3.63;3.25;;;;;18.30;94254.00;;;;7393716;19;20189;-79
2023/06/16 05:46:21;;;;;;;4.13;3.50;;;;;18.70;94263.00;;;;7392257;19;20585;-79
2023/06/16 05:48:49;;;;;;;7.38;3.35;;;;;18.60;94250.00;;;;7394310;19;20198;-77
2023/06/16 05:51:26;;;;;;;4.80;3.80;;;;;18.90;94255.00;;;;7391389;19;20136;-78
2023/06/16 05:53:55;;;;;;;11.20;3.22;;;;;19.20;94255.00;;;;7391145;19;20605;-78
2023/06/16 05:56:30;;;;;;;4.50;3.55;;;;;19.60;94257.00;;;;7391692;19;20575;-77
2023/06/16 05:58:58;;;;;;;8.82;3.65;;;;;19.70;94264.00;;;;7393007;19;20573;-77
2023/06/16 06:01:35;;;;;;;6.47;3.35;;;;;19.60;94271.00;;;;7389474;19;20140;-77
2023/06/16 06:04:14;;;;;;;4.28;3.10;;;;;20.40;94267.00;;;;7390389;19;20582;-77
2023/06/16 06:06:50;;;;;;;8.05;3.30;;;;;20.50;94258.00;;;;7391982;19;20155;-77
2023/06/16 06:09:30;;;;;;;8.10;3.60;;;;;20.00;94272.00;;;;7392949;19;20613;-78
2023/06/16 06:11:58;;;;;;;4.03;3.03;;;;;20.70;94271.00;;;;7398902;19;20158;-76
2023/06/16 06:14:28;;;;;;;4.82;3.20;;;;;21.00;94275.00;;;;7399518;19;20624;-76
2023/06/16 06:17:03;;;;;;;5.93;2.70;;;;;21.20;94275.00;;;;7398360;19;20152;-78
2023/06/16 06:19:33;;;;;;;5.03;3.38;;;;;21.00;94278.00;;;;7401712;19;20184;-78
2023/06/16 06:22:01;;;;;;;4.05;2.92;;;;;21.30;94283.00;;;;7396152;19;20600;-72
2023/06/16 06:24:35;;;;;;;6.13;3.40;;;;;21.30;94284.00;;;;7397382;19;20606;-74
2023/06/16 06:27:04;;;;;;;4.80;2.90;;;;;22.10;94280.00;;;;7399670;19;20224;-73
2023/06/16 06:29:40;;;;;;;3.78;2.95;;;;;22.90;94275.00;;;;7397932;19;20156;-74
2023/06/16 06:32:11;;;;;;;4.70;3.08;;;;;23.30;94284.00;;;;7399089;19;20160;-74
2023/06/16 06:34:46;;;;;;;3.75;2.90;;;;;23.40;94291.00;;;;7398660;19;20220;-73
2023/06/16 06:37:26;;;;;;;5.97;2.70;;;;;23.90;94298.00;;;;7398246;19;20517;-74
2023/06/16 06:40:01;;;;;;;6.07;3.17;;;;;23.80;94299.00;;;;7398397;19;20148;-75
2023/06/16 06:42:33;;;;;;;3.80;3.40;;;;;23.60;94295.00;;;;7400028;19;20146;-74
2023/06/16 06:45:10;;;;;;;9.35;3.15;;;;;22.70;94300.00;;;;7397773;19;20895;-75
2023/06/16 06:47:38;;;;;;;4.47;3.00;;;;;23.70;94301.00;;;;7398670;19;20157;-75
2023/06/16 06:50:12;;;;;;;3.72;2.90;;;;;23.70;94308.00;;;;7397939;19;20148;-73
2023/06/16 06:52:41;;;;;;;4.28;2.88;;;;;24.10;94308.00;;;;7395781;19;21037;-73
2023/06/16 06:55:15;;;;;;;5.38;3.20;;;;;24.00;94312.00;;;;7397989;19;20585;-74
2023/06/16 06:57:58;;;;;;;10.32;2.90;;;;;22.90;94306.00;;;;7394893;19;20537;-75
2023/06/16 07:00:39;;;;;;;4.25;3.13;;;;;23.70;94316.00;;;;7395638;19;20152;-74
2023/06/16 07:03:12;;;;;;;5.70;3.20;;;;;24.40;94312.00;;;;7397454;19;20616;-75
2023/06/16 07:05:47;;;;;;;6.60;3.35;;;;;24.30;94315.00;;;;7394714;19;20647;-73
2023/06/16 07:08:30;;;;;;;4.72;3.50;;;;;24.00;94328.00;;;;7393813;19;20149;-74
2023/06/16 07:11:05;;;;;;;4.22;3.15;;;;;23.00;94329.00;;;;7396624;19;20136;-73
2023/06/16 07:13:35;;;;;;;4.68;3.05;;;;;22.80;94327.00;;;;7395994;19;20148;-73
2023/06/16 07:16:09;;;;;;;3.88;2.90;;;;;22.90;94325.00;;;;7385830;19;20212;-74
2023/06/16 07:18:36;;;;;;;6.82;3.22;;;;;22.90;94331.00;;;;7383756;19;20548;-73
2023/06/16 07:21:13;;;;;;;3.83;3.08;;;;;22.20;94342.00;;;;7390333;19;20743;-75
2023/06/16 07:23:41;;;;;;;4.75;3.20;;;;;22.00;94347.00;;;;7384594;19;20151;-74
2023/06/16 07:26:16;;;;;;;4.78;3.20;;;;;22.00;94350.00;;;;7393224;19;20139;-74
2023/06/16 07:28:47;;;;;;;6.82;3.10;;;;;22.30;94345.00;;;;7389213;19;20337;-74
2023/06/16 07:31:21;;;;;;;3.88;3.25;;;;;23.00;94355.00;;;;7390501;19;20169;-74
2023/06/16 07:33:49;;;;;;;7.75;3.40;;;;;23.30;94342.00;;;;7392340;19;20605;-78
2023/06/16 07:36:23;;;;;;;4.82;3.20;;;;;22.10;94341.00;;;;7393505;19;20573;-76
2023/06/16 07:38:56;;;;;;;6.00;3.60;;;;;22.60;94351.00;;;;7389508;19;20158;-77
2023/06/16 07:41:32;;;;;;;8.82;3.25;;;;;22.20;94348.00;;;;7391045;19;20148;-76
2023/06/16 07:44:06;;;;;;;5.68;3.85;;;;;22.10;94346.00;;;;7393200;19;20148;-79
2023/06/16 07:46:38;;;;;;;3.15;2.85;;;;;21.90;94349.00;;;;7390544;19;20152;-79
2023/06/16 07:49:13;;;;;;;7.35;2.88;;;;;22.70;94351.00;;;;7393428;19;20231;-80
2023/06/16 07:51:48;;;;;;;4.10;3.10;;;;;23.50;94344.00;;;;7390981;19;20186;-78
2023/06/16 07:54:23;;;;;;;4.05;2.90;;;;;23.60;94340.00;;;;7391979;19;20156;-79
2023/06/16 07:57:01;;;;;;;5.50;3.72;;;;;23.90;94349.00;;;;7392512;19;20125;-80
2023/06/16 07:59:29;;;;;;;7.00;3.45;;;;;23.80;94350.00;;;;7391227;19;20137;-79
2023/06/16 08:02:04;;;;;;;6.00;3.38;;;;;24.00;94350.00;;;;7389949;19;20172;-77
2023/06/16 08:04:32;;;;;;;3.80;3.40;;;;;24.20;94340.00;;;;7391122;19;20179;-80
2023/06/16 08:07:00;;;;;;;5.82;3.42;;;;;24.20;94347.00;;;;7388374;19;20180;-80
2023/06/16 08:09:34;;;;;;;6.22;3.53;;;;;23.50;94351.00;;;;7391489;19;20244;-79
2023/06/16 08:12:02;;;;;;;7.38;3.70;;;;;23.90;94346.00;;;;7392485;19;20600;-81
2023/06/16 08:14:41;;;;;;;4.32;3.08;;;;;24.50;94344.00;;;;7389278;19;20183;-79
2023/06/16 08:17:11;;;;;;;5.78;3.55;;;;;24.50;94351.00;;;;7390063;19;20609;-79
2023/06/16 08:19:46;;;;;;;6.00;3.33;;;;;25.00;94336.00;;;;7393413;19;20132;-80
2023/06/16 08:22:15;;;;;;;6.15;3.30;;;;;24.70;94348.00;;;;7390849;19;20598;-81
2023/06/16 08:24:49;;;;;;;3.65;3.28;;;;;24.60;94351.00;;;;7391518;19;20166;-80
2023/06/16 08:27:17;;;;;;;3.85;3.40;;;;;24.50;94339.00;;;;7391440;19;20627;-79
2023/06/16 08:29:52;;;;;;;6.40;3.80;;;;;24.80;94343.00;;;;7392011;19;20509;-80
2023/06/16 08:32:23;;;;;;;7.65;3.40;;;;;24.40;94345.00;;;;7391327;19;20152;-80
2023/06/16 08:35:02;;;;;;;6.95;3.92;;;;;23.90;94350.00;;;;7388936;19;20159;-77
2023/06/16 08:37:37;;;;;;;4.05;3.65;;;;;24.60;94345.00;;;;7388829;19;20155;-78
2023/06/16 08:40:15;;;;;;;4.00;3.60;;;;;25.10;94355.00;;;;7389827;19;20152;-80
2023/06/16 08:42:53;;;;;;;5.78;3.53;;;;;25.40;94338.00;;;;7392317;19;20204;-75
2023/06/16 08:45:37;;;;;;;6.50;3.97;;;;;25.80;94338.00;;;;7392116;19;20141;-76
2023/06/16 08:48:13;;;;;;;5.57;3.60;;;;;26.20;94367.00;;;;7394336;19;20123;-75
2023/06/16 08:50:48;;;;;;;6.18;3.65;;;;;24.80;94366.00;;;;7397199;19;20132;-74
2023/06/16 08:53:25;;;;;;;5.05;3.47;;;;;23.50;94350.00;;;;7392847;19;20151;-74
2023/06/16 08:55:53;;;;;;;4.43;3.75;;;;;23.00;94343.00;;;;7393798;19;20148;-74
2023/06/16 08:58:33;;;;;;;5.95;3.67;;;;;24.00;94341.00;;;;7394613;19;20203;-74
2023/06/16 09:01:02;;;;;;;6.38;3.72;;;;;24.50;94341.00;;;;7393970;19;20149;-74
2023/06/16 09:03:37;;;;;;;4.18;3.70;;;;;23.70;94340.00;;;;7394285;19;20149;-79
2023/06/16 09:06:14;;;;;;;5.32;3.58;;;;;23.10;94335.00;;;;7393276;19;20189;-80
2023/06/16 09:08:55;;;;;;;4.65;3.28;;;;;24.60;94344.00;;;;7394653;19;20166;-79
2023/06/16 09:11:25;;;;;;;10.65;3.72;;;;;25.10;94333.00;;;;7396705;19;20133;-76
2023/06/16 09:14:12;;;;;;;6.00;4.05;;;;;24.40;94336.00;;;;7394236;19;20133;-76
2023/06/16 09:16:55;;;;;;;4.97;3.72;;;;;24.50;94334.00;;;;7394802;19;20169;-79
2023/06/16 09:19:30;;;;;;;9.48;3.92;;;;;23.50;94333.00;;;;7393991;19;20145;-78
2023/06/16 09:22:05;;;;;;;7.25;3.63;;;;;22.80;94333.00;;;;7393302;19;20520;-79
2023/06/16 09:24:40;;;;;;;6.63;3.80;;;;;24.00;94326.00;;;;7393176;19;20124;-79
2023/06/16 09:27:14;;;;;;;6.00;3.83;;;;;24.90;94319.00;;;;7396002;19;20495;-80
2023/06/16 09:29:58;;;;;;;10.57;3.33;;;;;25.10;94313.00;;;;7392923;19;20140;-79
2023/06/16 09:32:41;;;;;;;5.05;3.50;;;;;24.90;94315.00;;;;7394663;19;20133;-79
2023/06/16 09:35:23;;;;;;;8.35;3.80;;;;;25.10;94317.00;;;;7392523;19;20464;-78
2023/06/16 09:37:52;;;;;;;7.00;4.25;;;;;25.40;94316.00;;;;7392858;19;20142;-78
2023/06/16 09:40:38;;;;;;;4.30;3.80;;;;;25.20;94324.00;;;;7388940;19;20170;-79
2023/06/16 09:43:13;;;;;;;4.85;3.33;;;;;24.70;94321.00;;;;7388506;19;20144;-79
2023/06/16 09:45:57;;;;;;;5.78;3.58;;;;;26.00;94322.00;;;;7393350;19;20147;-78
2023/06/16 09:48:34;;;;;;;8.00;3.92;;;;;26.40;94333.00;;;;7397679;19;20597;-79
2023/06/16 09:51:08;;;;;;;6.65;3.25;;;;;27.00;94329.00;;;;7396540;19;20645;-77
2023/06/16 09:53:48;;;;;;;7.80;3.85;;;;;27.40;94316.00;;;;7398510;19;20480;-79
2023/06/16 09:56:19;;;;;;;6.72;3.88;;;;;27.20;94320.00;;;;7396204;19;20140;-76
2023/06/16 09:58:53;;;;;;;5.03;4.13;;;;;25.90;94355.00;;;;7398331;19;20128;-76
2023/06/16 10:01:24;;;;;;;4.38;3.72;;;;;22.80;94352.00;;;;7396381;19;20761;-74
2023/06/16 10:03:59;;;;;;;5.68;3.58;;;;;23.90;94324.00;;;;7394469;19;20137;-77
2023/06/16 10:07:00;;;;;;;8.05;4.00;;;;;26.10;94345.00;;;;7393946;19;20194;-76
2023/06/16 10:09:40;;;;;;;7.40;3.67;;;;;26.30;94318.00;;;;7395153;19;20651;-77
2023/06/16 10:12:33;;;;;;;13.25;3.30;;;;;26.40;94305.00;;;;7396116;19;20192;-78
2023/06/16 10:15:11;;;;;;;8.10;3.60;;;;;26.40;94325.00;;;;7395817;19;20510;-75
2023/06/16 10:17:41;;;;;;;5.07;3.95;;;;;25.60;94306.00;;;;7394747;19;20128;-77
2023/06/16 10:20:24;;;;;;;5.95;3.92;;;;;26.70;94308.00;;;;7395788;19;20168;-76
2023/06/16 10:23:02;;;;;;;5.70;3.75;;;;;25.50;94369.00;;;;7393196;19;20145;-78
2023/06/16 10:25:39;;;;;;;6.10;3.60;;;;;22.30;94366.00;;;;7394554;19;20172;-74
2023/06/16 10:28:13;;;;;;;3.72;3.22;;;;;23.70;94313.00;;;;7395920;19;20494;-78
2023/06/16 10:30:48;;;;;;;7.15;3.78;;;;;25.30;94307.00;;;;7395199;19;20144;-76
2023/06/16 10:33:28;;;;;;;6.75;3.90;;;;;26.10;94352.00;;;;7394708;19;20145;-80
2023/06/16 10:36:03;;;;;;;4.13;3.58;;;;;25.20;94351.00;;;;7393203;19;20152;-74
2023/06/16 10:39:01;;;;;;;6.28;3.40;;;;;24.10;94316.00;;;;7398529;19;20143;-81
2023/06/16 10:41:29;;;;;;;6.85;4.10;;;;;24.10;94312.00;;;;7393689;19;20616;-76
2023/06/16 10:44:29;;;;;;;5.82;3.83;;;;;25.80;94313.00;;;;7393867;19;20144;-79
2023/06/16 10:47:12;;;;;;;3.70;3.40;;;;;26.20;94311.00;;;;7394490;19;20466;-77
2023/06/16 10:49:57;;;;;;;5.25;3.75;;;;;25.40;94311.00;;;;7395285;19;20301;-77
2023/06/16 10:52:42;;;;;;;6.85;3.70;;;;;26.60;94303.00;;;;7396007;19;20650;-73
2023/06/16 10:55:25;;;;;;;6.55;4.13;;;;;26.80;94301.00;;;;7395811;19;20133;-74
2023/06/16 10:58:19;;;;;;;6.82;3.70;;;;;27.00;94306.00;;;;7391988;19;20564;-73
2023/06/16 11:01:04;;;;;;;4.43;3.85;;;;;27.60;94307.00;;;;7392410;19;20212;-73
2023/06/16 11:03:45;;;;;;;8.07;3.97;;;;;28.10;94304.00;;;;7390777;19;20152;-75
2023/06/16 11:06:22;;;;;;;8.57;4.07;;;;;29.10;94294.00;;;;7391187;19;20135;-76
2023/06/16 11:09:06;;;;;;;6.25;4.40;;;;;28.90;94300.00;;;;7393872;19;20795;-76
2023/06/16 11:11:40;;;;;;;7.15;4.70;;;;;28.90;94307.00;;;;7392993;19;20160;-75
2023/06/16 11:14:17;;;;;;;12.07;3.95;;;;;27.60;94308.00;;;;7392486;19;20621;-78
2023/06/16 11:16:51;;;;;;;4.82;4.32;;;;;27.90;94311.00;;;;7393781;19;20132;-76
2023/06/16 11:19:25;;;;;;;6.25;3.92;;;;;29.10;94308.00;;;;7393804;19;20148;-78
2023/06/16 11:21:58;;;;;;;5.88;4.80;;;;;26.60;94308.00;;;;7393632;19;20593;-79
2023/06/16 11:24:34;;;;;;;7.95;4.05;;;;;25.70;94359.00;;;;7390246;19;20133;-75
2023/06/16 11:27:02;;;;;;;5.38;4.40;;;;;25.40;94328.00;;;;7395008;19;20136;-74
2023/06/16 11:29:37;;;;;;;5.68;4.47;;;;;23.50;94355.00;;;;7394636;19;20128;-77
2023/06/16 11:32:05;;;;;;;7.72;4.18;;;;;22.40;94357.00;;;;7391717;19;20622;-76
2023/06/16 11:34:40;;;;;;;6.45;3.90;;;;;21.70;94362.00;;;;7393877;19;20132;-77
2023/06/16 11:37:07;;;;;;;8.10;3.67;;;;;22.00;94309.00;;;;7393642;19;20128;-77
2023/06/16 11:39:45;;;;;;;4.15;3.75;;;;;23.30;94345.00;;;;7392218;19;20136;-78
2023/06/16 11:42:14;;;;;;;9.65;5.05;;;;;21.90;94351.00;;;;7391399;19;20145;-79
2023/06/16 11:44:53;;;;;;;4.65;4.07;;;;;23.20;94293.00;;;;7392784;19;20157;-77
2023/06/16 11:47:29;;;;;;;5.90;4.53;;;;;25.40;94294.00;;;;7394928;19;20158;-75
2023/06/16 11:50:05;;;;;;;6.25;4.22;;;;;26.50;94290.00;;;;7390710;19;20177;-77
2023/06/16 11:52:34;;;;;;;7.47;4.82;;;;;27.00;94297.00;;;;7391227;19;20145;-77
2023/06/16 11:55:03;;;;;;;11.57;4.30;;;;;27.50;94295.00;;;;7393544;19;20600;-77
2023/06/16 11:57:38;;;;;;;9.85;4.38;;;;;28.10;94290.00;;;;7392898;19;20140;-78
2023/06/16 12:00:09;;;;;;;7.75;4.50;;;;;27.10;94298.00;;;;7391428;19;20144;-77
2023/06/16 12:02:47;;;;;;;7.32;4.45;;;;;26.20;94292.00;;;;7393068;19;20605;-78
2023/06/16 12:05:25;;;;;;;5.43;4.35;;;;;25.40;94287.00;;;;7394289;19;20222;-76
2023/06/16 12:08:06;;;;;;;6.45;4.35;;;;;24.60;94292.00;;;;7390215;19;20224;-78
2023/06/16 12:10:33;;;;;;;9.02;4.35;;;;;26.60;94289.00;;;;7393082;19;20166;-77
2023/06/16 12:13:08;;;;;;;6.07;4.05;;;;;27.20;94282.00;;;;7391969;19;20604;-79
2023/06/16 12:15:43;;;;;;;11.43;4.43;;;;;28.40;94282.00;;;;7392067;19;20609;-79
2023/06/16 12:18:17;;;;;;;9.32;4.72;;;;;28.80;94279.00;;;;7391596;19;20136;-80
2023/06/16 12:20:51;;;;;;;5.15;4.20;;;;;28.00;94284.00;;;;7391303;19;20157;-80
2023/06/16 12:23:19;;;;;;;5.38;4.50;;;;;27.70;94318.00;;;;7389762;19;20125;-78
2023/06/16 12:25:55;;;;;;;5.75;4.00;;;;;27.80;94278.00;;;;7390167;19;20137;-79
2023/06/16 12:28:31;;;;;;;6.45;4.22;;;;;28.20;94304.00;;;;7392317;19;20199;-76
2023/06/16 12:31:01;;;;;;;8.85;4.15;;;;;28.80;94271.00;;;;7390246;19;20625;-77
2023/06/16 12:33:29;;;;;;;5.00;4.20;;;;;28.50;94272.00;;;;7393261;19;20161;-78
2023/06/16 12:36:10;;;;;;;7.25;4.20;;;;;29.10;94273.00;;;;7391698;19;20226;-79
2023/06/16 12:38:41;;;;;;;4.63;4.00;;;;;27.70;94266.00;;;;7390157;19;20613;-77
2023/06/16 12:41:16;;;;;;;7.10;4.40;;;;;26.70;94269.00;;;;7388894;19;20605;-79
2023/06/16 12:43:51;;;;;;;5.03;4.07;;;;;28.00;94269.00;;;;7389245;19;20613;-79
2023/06/16 12:46:25;;;;;;;6.00;3.97;;;;;28.70;94269.00;;;;7393018;19;20595;-80
2023/06/16 12:48:53;;;;;;;6.25;4.50;;;;;29.40;94310.00;;;;7392597;19;20151;-79
2023/06/16 12:51:27;;;;;;;9.65;4.10;;;;;29.10;94257.00;;;;7394401;19;20139;-80
2023/06/16 12:53:55;;;;;;;6.88;4.85;;;;;28.70;94265.00;;;;7395587;19;20128;-79